Time;durP1;ratioP1;P1;durP2;ratioP2;P2;SDS_P1;SDS_P2;PMS_P1;PMS_P2;Temp;Humidity;BMP_temperature;BMP_pressure;BME280_temperature;BME280_humidity;BME280_pressure;Samples;Min_cycle;Max_cycle;Signal;HPM_P1;HPM_P2
2021/05/17 13:02:39;;;;;;;;;;;;;;;;;;5094933;28;20019;-72
2021/05/17 13:05:04;;;;;;;;;;;;;;;;;;5096102;28;31862;-72
2021/05/17 13:07:30;;;;;;;;;;;;;;;;;;5096011;28;32219;-73
2021/05/17 13:09:55;;;;;;;;;;;;;;;;;;5095888;27;32861;-73
2021/05/17 13:12:21;;;;;;;;;;;;;;;;;;5096148;28;32262;-72
2021/05/17 13:14:46;;;;;;;;;;;;;;;;;;5095866;28;32707;-73
2021/05/17 13:17:12;;;;;;;;;;;;;;;;;;5097510;27;32942;-76
2021/05/17 13:19:43;;;;;;;;;;;;;;;;;;5096260;27;32792;-74
2021/05/17 13:25:16;;;;;;;;;;;;;;;;;;5097707;27;32448;-73
2021/05/17 13:30:27;;;;;;;;;;;;;;;;;;5097709;27;33871;-71
2021/05/17 13:32:52;;;;;;;;;;;;;;;;;;5096441;27;32373;-73
2021/05/17 13:35:18;;;;;;;;;;;;;;;;;;5095768;28;32408;-72
2021/05/17 13:37:43;;;;;;;;;;;;;;;;;;5097614;27;32256;-74
2021/05/17 13:40:09;;;;;;;;;;;;;;;;;;5092439;28;33100;-74
2021/05/17 13:42:34;;;;;;;;;;;;;;;;;;5095687;28;32472;-75
2021/05/17 13:45:00;;;;;;;;;;;;;;;;;;5095586;27;32362;-73
2021/05/17 13:47:25;;;;;;;;;;;;;;;;;;5095696;28;33265;-75
2021/05/17 13:49:51;;;;;;;;;;;;;;;;;;5093951;28;33819;-73
2021/05/17 13:52:16;;;;;;;;;;;;;;;;;;5094414;28;30936;-72
2021/05/17 13:54:41;;;;;;;;;;;;;;;;;;5095987;27;31978;-72
2021/05/17 13:57:07;;;;;;;;;;;;;;;;;;5095524;28;32194;-73
2021/05/17 13:59:32;;;;;;;;;;;;;;;;;;5095468;28;32632;-72
2021/05/17 14:01:58;;;;;;;;;;;;;;;;;;5093747;27;32752;-73
2021/05/17 14:04:25;;;;;;;;;;;;;;;;;;5096998;27;32729;-71
2021/05/17 14:06:50;;;;;;;;;;;;;;;;;;5097582;27;32243;-73
2021/05/17 14:09:18;;;;;;;;;;;;;;;;;;5095108;28;33554;-71
2021/05/17 14:11:44;;;;;;;;;;;;;;;;;;5095742;27;32364;-72
2021/05/17 14:14:09;;;;;;;;;;;;;;;;;;5080864;28;31767;-72
2021/05/17 14:16:35;;;;;;;;;;;;;;;;;;5078228;28;32387;-72
2021/05/17 14:19:01;;;;;;;;;;;;;;;;;;5081521;28;32847;-71
2021/05/17 14:21:27;;;;;;;;;;;;;;;;;;5081720;28;32401;-73
2021/05/17 14:23:52;;;;;;;;;;;;;;;;;;5082916;27;32744;-72
2021/05/17 14:26:18;;;;;;;;;;;;;;;;;;5081884;27;33304;-72
2021/05/17 14:28:47;;;;;;;;;;;;;;;;;;5081660;28;32884;-73
2021/05/17 14:31:14;;;;;;;;;;;;;;;;;;5078203;28;33383;-73
2021/05/17 14:33:39;;;;;;;;;;;;;;;;;;5081743;28;31845;-72
2021/05/17 14:36:05;;;;;;;;;;;;;;;;;;5078141;28;32980;-72
2021/05/17 14:38:30;;;;;;;;;;;;;;;;;;5077917;28;32848;-73
2021/05/17 14:40:56;;;;;;;;;;;;;;;;;;5081044;28;32382;-72
2021/05/17 14:43:21;;;;;;;;;;;;;;;;;;5081940;28;31727;-73
2021/05/17 14:45:47;;;;;;;;;;;;;;;;;;5078370;28;32472;-73
2021/05/17 14:48:12;;;;;;;;;;;;;;;;;;5081727;28;33887;-73
2021/05/17 14:50:38;;;;;;;;;;;;;;;;;;5082684;27;32420;-73
2021/05/17 14:53:04;;;;;;;;;;;;;;;;;;5081689;28;31774;-73
2021/05/17 14:55:29;;;;;;;;;;;;;;;;;;5081451;28;33141;-71
2021/05/17 14:57:54;;;;;;;;;;;;;;;;;;5081225;28;32813;-70
2021/05/17 15:00:20;;;;;;;;;;;;;;;;;;5080606;28;33278;-71
2021/05/17 15:02:45;;;;;;;;;;;;;;;;;;5078065;28;31786;-73
2021/05/17 15:05:11;;;;;;;;;;;;;;;;;;5083086;27;32434;-72
2021/05/17 15:07:36;;;;;;;;;;;;;;;;;;5081132;28;32829;-72
2021/05/17 15:10:02;;;;;;;;;;;;;;;;;;5082776;27;32373;-72
2021/05/17 15:12:27;;;;;;;;;;;;;;;;;;5080937;28;31707;-73
2021/05/17 15:14:53;;;;;;;;;;;;;;;;;;5082141;27;32308;-74
2021/05/17 15:17:18;;;;;;;;;;;;;;;;;;5079311;28;38013;-71
2021/05/17 15:19:44;;;;;;;;;;;;;;;;;;5080732;28;32614;-79
2021/05/17 15:22:09;;;;;;;;;;;;;;;;;;5082290;27;31799;-81
2021/05/17 15:24:35;;;;;;;;;;;;;;;;;;5077645;27;101949;-73
2021/05/17 15:27:00;;;;;;;;;;;;;;;;;;5080523;28;32868;-73
2021/05/17 15:29:26;;;;;;;;;;;;;;;;;;5080499;28;32354;-73
2021/05/17 15:31:51;;;;;;;;;;;;;;;;;;5079386;27;32789;-72
2021/05/17 15:34:17;;;;;;;;;;;;;;;;;;5080371;28;32244;-72
2021/05/17 15:36:42;;;;;;;;;;;;;;;;;;5080364;27;32869;-72
2021/05/17 15:39:08;;;;;;;;;;;;;;;;;;5082065;27;33033;-72
2021/05/17 15:41:33;;;;;;;;;;;;;;;;;;5080224;28;31647;-73
2021/05/17 15:43:59;;;;;;;;;;;;;;;;;;5080313;28;32183;-72
2021/05/17 15:46:24;;;;;;;;;;;;;;;;;;5080556;28;33781;-73
2021/05/17 15:48:50;;;;;;;;;;;;;;;;;;5081809;27;32391;-73
2021/05/17 15:51:15;;;;;;;;;;;;;;;;;;5080398;28;31714;-73
2021/05/17 15:53:41;;;;;;;;;;;;;;;;;;5078453;28;33092;-72
2021/05/17 15:56:06;;;;;;;;;;;;;;;;;;5080348;28;33687;-73
2021/05/17 15:58:35;;;;;;;;;;;;;;;;;;5081641;27;33253;-73
2021/05/17 16:01:00;;;;;;;;;;;;;;;;;;5079255;28;31596;-73
2021/05/17 16:03:25;;;;;;;;;;;;;;;;;;5081624;27;32349;-73
2021/05/17 16:05:51;;;;;;;;;;;;;;;;;;5079884;28;32732;-73
2021/05/17 16:08:17;;;;;;;;;;;;;;;;;;5079986;27;32367;-73
2021/05/17 16:10:46;;;;;;;;;;;;;;;;;;5081638;27;31813;-72
2021/05/17 16:14:00;;;;;;;;;;;;;;;;;;5081515;27;32290;-73
2021/05/17 16:16:15;;;;;;;;;;;;;;;;;;5078450;27;33378;-73
2021/05/17 16:21:30;;;;;;;;;;;;;;;;;;5081444;27;31936;-72
2021/05/17 16:23:55;;;;;;;;;;;;;;;;;;5080286;28;32233;-73
2021/05/17 16:26:20;;;;;;;;;;;;;;;;;;5081384;27;33899;-72
2021/05/17 16:28:46;;;;;;;;;;;;;;;;;;5076604;28;32456;-73
2021/05/17 16:31:12;;;;;;;;;;;;;;;;;;5081531;27;32728;-73
2021/05/17 16:33:37;;;;;;;;;;;;;;;;;;5080093;28;32874;-73
2021/05/17 16:36:03;;;;;;;;;;;;;;;;;;5079768;28;32784;-73
2021/05/17 16:38:28;;;;;;;;;;;;;;;;;;5076154;28;32348;-72
2021/05/17 16:40:54;;;;;;;;;;;;;;;;;;5080286;28;31801;-72
2021/05/17 16:43:19;;;;;;;;;;;;;;;;;;5079273;28;29772;-73
2021/05/17 16:45:44;;;;;;;;;;;;;;;;;;5081108;28;32932;-73
2021/05/17 16:48:10;;;;;;;;;;;;;;;;;;5081155;27;32244;-73
2021/05/17 16:50:35;;;;;;;;;;;;;;;;;;5079431;28;31855;-72
2021/05/17 16:53:01;;;;;;;;;;;;;;;;;;5076102;28;32188;-73
2021/05/17 16:55:26;;;;;;;;;;;;;;;;;;5079243;28;33486;-72
2021/05/17 16:57:52;;;;;;;;;;;;;;;;;;5079791;28;33481;-74
2021/05/17 17:00:17;;;;;;;;;;;;;;;;;;5078902;28;31554;-73
2021/05/17 17:02:43;;;;;;;;;;;;;;;;;;5077648;28;31186;-73
2021/05/17 17:05:08;;;;;;;;;;;;;;;;;;5079015;28;35060;-72
2021/05/17 17:07:34;;;;;;;;;;;;;;;;;;5077722;28;32751;-72
2021/05/17 17:09:59;;;;;;;;;;;;;;;;;;5080812;27;31850;-72
2021/05/17 17:12:25;;;;;;;;;;;;;;;;;;5077608;27;31504;-76
2021/05/17 17:14:50;;;;;;;;;;;;;;;;;;5078574;28;32817;-75
2021/05/17 17:17:15;;;;;;;;;;;;;;;;;;5077887;27;32392;-77
2021/05/17 17:19:41;;;;;;;;;;;;;;;;;;5078081;27;32694;-76
2021/05/17 17:22:06;;;;;;;;;;;;;;;;;;5077706;28;32545;-75
2021/05/17 17:24:40;;;;;;;;;;;;;;;;;;5075663;28;32805;-76
2021/05/17 17:27:05;;;;;;;;;;;;;;;;;;5079431;28;32412;-75
2021/05/17 17:29:31;;;;;;;;;;;;;;;;;;5077670;27;31812;-76
2021/05/17 17:31:56;;;;;;;;;;;;;;;;;;5080575;27;32901;-76
2021/05/17 17:34:22;;;;;;;;;;;;;;;;;;5079022;28;32830;-77
2021/05/17 17:36:47;;;;;;;;;;;;;;;;;;5077595;28;32302;-77
2021/05/17 17:39:13;;;;;;;;;;;;;;;;;;5077498;27;30458;-75
2021/05/17 17:41:38;;;;;;;;;;;;;;;;;;5080697;27;32508;-75
2021/05/17 17:44:04;;;;;;;;;;;;;;;;;;5077595;27;31256;-77
2021/05/17 17:46:29;;;;;;;;;;;;;;;;;;5078760;28;32997;-77
2021/05/17 17:49:05;;;;;;;;;;;;;;;;;;5081292;28;31764;-77
2021/05/17 17:51:30;;;;;;;;;;;;;;;;;;5083662;27;32256;-76
2021/05/17 17:53:56;;;;;;;;;;;;;;;;;;5081887;27;33459;-76
2021/05/17 17:56:22;;;;;;;;;;;;;;;;;;5078623;28;33225;-77
2021/05/17 17:58:48;;;;;;;;;;;;;;;;;;5078504;28;32366;-76
2021/05/17 18:01:13;;;;;;;;;;;;;;;;;;5081664;27;32358;-77
2021/05/17 18:03:39;;;;;;;;;;;;;;;;;;5081477;28;33533;-76
2021/05/17 18:06:04;;;;;;;;;;;;;;;;;;5077071;28;32609;-76
2021/05/17 18:08:29;;;;;;;;;;;;;;;;;;5078358;28;31766;-76
2021/05/17 18:10:56;;;;;;;;;;;;;;;;;;5083129;27;33198;-76
2021/05/17 18:13:21;;;;;;;;;;;;;;;;;;5081883;28;33096;-77
2021/05/17 18:15:47;;;;;;;;;;;;;;;;;;5081570;27;32426;-76
2021/05/17 18:18:12;;;;;;;;;;;;;;;;;;5081851;27;32680;-77
2021/05/17 18:20:38;;;;;;;;;;;;;;;;;;5078183;28;32380;-77
2021/05/17 18:23:03;;;;;;;;;;;;;;;;;;5083003;27;33873;-77
2021/05/17 18:25:31;;;;;;;;;;;;;;;;;;5080197;28;33041;-73
2021/05/17 18:27:59;;;;;;;;;;;;;;;;;;5081684;28;32008;-73
2021/05/17 18:30:24;;;;;;;;;;;;;;;;;;5081709;28;32859;-73
2021/05/17 18:32:56;;;;;;;;;;;;;;;;;;5079916;28;31127;-74
2021/05/17 18:35:26;;;;;;;;;;;;;;;;;;5077988;28;33509;-74
2021/05/17 18:37:51;;;;;;;;;;;;;;;;;;5081719;28;32403;-74
2021/05/17 18:40:17;;;;;;;;;;;;;;;;;;5080963;28;32215;-74
2021/05/17 18:42:44;;;;;;;;;;;;;;;;;;5082822;27;33492;-75
2021/05/17 18:47:53;;;;;;;;;;;;;;;;;;5082648;27;31979;-74
2021/05/17 18:50:19;;;;;;;;;;;;;;;;;;5082415;27;32316;-73
2021/05/17 18:52:44;;;;;;;;;;;;;;;;;;5079552;28;31497;-73
2021/05/17 18:55:10;;;;;;;;;;;;;;;;;;5080912;27;33418;-73
2021/05/17 18:57:37;;;;;;;;;;;;;;;;;;5080877;27;31983;-73
2021/05/17 19:00:03;;;;;;;;;;;;;;;;;;5080056;27;32316;-74
2021/05/17 19:02:28;;;;;;;;;;;;;;;;;;5080615;28;34139;-74
2021/05/17 19:04:54;;;;;;;;;;;;;;;;;;5077570;27;32164;-73
2021/05/17 19:07:19;;;;;;;;;;;;;;;;;;5080643;28;31994;-73
2021/05/17 19:09:45;;;;;;;;;;;;;;;;;;5081087;28;32333;-72
2021/05/17 19:12:10;;;;;;;;;;;;;;;;;;5080970;27;32746;-73
2021/05/17 19:14:36;;;;;;;;;;;;;;;;;;5080649;28;33040;-74
2021/05/17 19:17:01;;;;;;;;;;;;;;;;;;5080843;27;31666;-72
2021/05/17 19:19:26;;;;;;;;;;;;;;;;;;5081906;27;32915;-73
2021/05/17 19:21:52;;;;;;;;;;;;;;;;;;5080324;27;32925;-73
2021/05/17 19:24:17;;;;;;;;;;;;;;;;;;5076053;28;32442;-73
2021/05/17 19:26:46;;;;;;;;;;;;;;;;;;5080517;28;31656;-74
2021/05/17 19:29:11;;;;;;;;;;;;;;;;;;5080396;28;32216;-74
2021/05/17 19:31:37;;;;;;;;;;;;;;;;;;5080915;28;32918;-74
2021/05/17 19:34:02;;;;;;;;;;;;;;;;;;5080416;28;32868;-73
2021/05/17 19:36:27;;;;;;;;;;;;;;;;;;5082124;27;31883;-73
2021/05/17 19:38:53;;;;;;;;;;;;;;;;;;5080188;28;32215;-73
2021/05/17 19:41:19;;;;;;;;;;;;;;;;;;5080088;28;32823;-72
2021/05/17 19:43:44;;;;;;;;;;;;;;;;;;5080236;28;32516;-76
2021/05/17 19:46:10;;;;;;;;;;;;;;;;;;5080635;28;31782;-73
2021/05/17 19:48:35;;;;;;;;;;;;;;;;;;5080099;28;32254;-72
2021/05/17 19:51:01;;;;;;;;;;;;;;;;;;5080008;28;32724;-73
2021/05/17 19:53:27;;;;;;;;;;;;;;;;;;5078861;27;32493;-73
2021/05/17 19:55:54;;;;;;;;;;;;;;;;;;5078913;28;30002;-73
2021/05/17 19:58:19;;;;;;;;;;;;;;;;;;5080384;27;31848;-74
2021/05/17 20:00:44;;;;;;;;;;;;;;;;;;5079843;27;33819;-75
2021/05/17 20:03:10;;;;;;;;;;;;;;;;;;5078749;27;32279;-75
2021/05/17 20:05:36;;;;;;;;;;;;;;;;;;5078892;28;31952;-73
2021/05/17 20:08:01;;;;;;;;;;;;;;;;;;5082088;27;32245;-73
2021/05/17 20:10:27;;;;;;;;;;;;;;;;;;5079669;28;33084;-73
2021/05/17 20:12:52;;;;;;;;;;;;;;;;;;5080280;28;32507;-76
2021/05/17 20:15:18;;;;;;;;;;;;;;;;;;5079674;27;31836;-72
2021/05/17 20:17:43;;;;;;;;;;;;;;;;;;5081696;27;32350;-72
2021/05/17 20:20:09;;;;;;;;;;;;;;;;;;5081292;27;33765;-75
2021/05/17 20:22:34;;;;;;;;;;;;;;;;;;5078590;28;32418;-73
2021/05/17 20:25:00;;;;;;;;;;;;;;;;;;5079620;27;31825;-73
2021/05/17 20:27:27;;;;;;;;;;;;;;;;;;5079671;28;32944;-74
2021/05/17 20:29:52;;;;;;;;;;;;;;;;;;5080313;28;32834;-74
2021/05/17 20:32:18;;;;;;;;;;;;;;;;;;5079878;28;32592;-73
2021/05/17 20:37:10;;;;;;;;;;;;;;;;;;5079782;27;32940;-73
2021/05/17 20:39:36;;;;;;;;;;;;;;;;;;5078446;28;33754;-74
2021/05/17 20:42:01;;;;;;;;;;;;;;;;;;5080048;28;33435;-74
2021/05/17 20:44:35;;;;;;;;;;;;;;;;;;5079546;28;31641;-73
2021/05/17 20:47:01;;;;;;;;;;;;;;;;;;5081384;27;33300;-73
2021/05/17 20:49:27;;;;;;;;;;;;;;;;;;5078238;28;30990;-74
2021/05/17 20:51:52;;;;;;;;;;;;;;;;;;5079239;28;33300;-73
2021/05/17 20:54:17;;;;;;;;;;;;;;;;;;5076299;28;31844;-72
2021/05/17 20:56:43;;;;;;;;;;;;;;;;;;5081295;27;33252;-73
2021/05/17 20:59:08;;;;;;;;;;;;;;;;;;5079961;28;32872;-73
2021/05/17 21:01:34;;;;;;;;;;;;;;;;;;5078749;28;32296;-74
2021/05/17 21:03:59;;;;;;;;;;;;;;;;;;5079155;28;31891;-73
2021/05/17 21:06:25;;;;;;;;;;;;;;;;;;5079535;27;32212;-75
2021/05/17 21:08:51;;;;;;;;;;;;;;;;;;5079607;28;32793;-73
2021/05/17 21:11:18;;;;;;;;;;;;;;;;;;5080861;27;32887;-75
2021/05/17 21:13:43;;;;;;;;;;;;;;;;;;5078659;28;31756;-74
2021/05/17 21:16:09;;;;;;;;;;;;;;;;;;5079256;28;32461;-72
2021/05/17 21:18:38;;;;;;;;;;;;;;;;;;5076344;28;32787;-73
2021/05/17 21:21:03;;;;;;;;;;;;;;;;;;5079118;28;33353;-73
2021/05/17 21:23:29;;;;;;;;;;;;;;;;;;5080952;28;31909;-73
2021/05/17 21:25:54;;;;;;;;;;;;;;;;;;5083552;27;32857;-74
2021/05/17 21:28:20;;;;;;;;;;;;;;;;;;5082326;28;32701;-74
2021/05/17 21:30:47;;;;;;;;;;;;;;;;;;5082256;28;32482;-73
2021/05/17 21:33:12;;;;;;;;;;;;;;;;;;5082141;28;31843;-73
2021/05/17 21:35:38;;;;;;;;;;;;;;;;;;5082396;27;32901;-73
2021/05/17 21:38:03;;;;;;;;;;;;;;;;;;5082242;28;32877;-72
2021/05/17 21:40:30;;;;;;;;;;;;;;;;;;5082199;28;32474;-73
2021/05/17 21:42:55;;;;;;;;;;;;;;;;;;5080544;28;30363;-73
2021/05/17 21:45:22;;;;;;;;;;;;;;;;;;5080556;27;30417;-73
2021/05/17 21:47:47;;;;;;;;;;;;;;;;;;5081965;28;33844;-73
2021/05/17 21:50:14;;;;;;;;;;;;;;;;;;5083249;27;32333;-73
2021/05/17 21:52:40;;;;;;;;;;;;;;;;;;5080458;27;32005;-73
2021/05/17 21:55:05;;;;;;;;;;;;;;;;;;5081734;28;32305;-73
2021/05/17 21:57:30;;;;;;;;;;;;;;;;;;5081567;28;32846;-73
2021/05/17 21:59:56;;;;;;;;;;;;;;;;;;5081360;28;33368;-73
2021/05/17 22:02:21;;;;;;;;;;;;;;;;;;5080406;28;31725;-73
2021/05/17 22:04:47;;;;;;;;;;;;;;;;;;5083168;27;33232;-73
2021/05/17 22:10:06;;;;;;;;;;;;;;;;;;5079983;28;31469;-73
2021/05/17 22:10:31;;;;;;;;;;;;;;;;;;5078407;28;32378;-74
2021/05/17 22:12:50;;;;;;;;;;;;;;;;;;5081004;28;31587;-75
2021/05/17 22:15:16;;;;;;;;;;;;;;;;;;5082880;27;32412;-74
2021/05/17 22:17:41;;;;;;;;;;;;;;;;;;5081532;28;32977;-75
2021/05/17 22:20:06;;;;;;;;;;;;;;;;;;5081419;27;32426;-75
2021/05/17 22:22:32;;;;;;;;;;;;;;;;;;5081818;27;31886;-73
2021/05/17 22:24:58;;;;;;;;;;;;;;;;;;5081190;27;32332;-74
2021/05/17 22:27:23;;;;;;;;;;;;;;;;;;5078208;28;32808;-75
2021/05/17 22:29:49;;;;;;;;;;;;;;;;;;5081306;27;32304;-75
2021/05/17 22:32:14;;;;;;;;;;;;;;;;;;5082963;27;32375;-75
2021/05/17 22:34:40;;;;;;;;;;;;;;;;;;5080729;27;32052;-75
2021/05/17 22:37:05;;;;;;;;;;;;;;;;;;5081261;28;33497;-73
2021/05/17 22:39:31;;;;;;;;;;;;;;;;;;5081210;28;32554;-73
2021/05/17 22:41:56;;;;;;;;;;;;;;;;;;5081123;28;31786;-73
2021/05/17 22:44:22;;;;;;;;;;;;;;;;;;5081227;28;32283;-74
2021/05/17 22:46:47;;;;;;;;;;;;;;;;;;5079691;27;33655;-74
2021/05/17 22:49:13;;;;;;;;;;;;;;;;;;5082950;27;32553;-74
2021/05/17 22:51:38;;;;;;;;;;;;;;;;;;5081236;28;32730;-74
2021/05/17 22:54:04;;;;;;;;;;;;;;;;;;5081048;27;32221;-74
2021/05/17 22:56:29;;;;;;;;;;;;;;;;;;5081071;28;32913;-73
2021/05/17 22:58:55;;;;;;;;;;;;;;;;;;5081071;28;32121;-74
2021/05/17 23:01:20;;;;;;;;;;;;;;;;;;5080343;28;31793;-74
2021/05/17 23:03:46;;;;;;;;;;;;;;;;;;5080911;28;33224;-73
2021/05/17 23:06:11;;;;;;;;;;;;;;;;;;5080750;28;32924;-73
2021/05/17 23:08:37;;;;;;;;;;;;;;;;;;5082352;27;32928;-73
2021/05/17 23:11:02;;;;;;;;;;;;;;;;;;5080836;28;32706;-73
2021/05/17 23:13:28;;;;;;;;;;;;;;;;;;5079242;28;32173;-73
2021/05/17 23:15:53;;;;;;;;;;;;;;;;;;5082618;27;32950;-73
2021/05/17 23:18:19;;;;;;;;;;;;;;;;;;5080886;28;32131;-74
2021/05/17 23:23:28;;;;;;;;;;;;;;;;;;5082436;27;33327;-73
2021/05/17 23:28:37;;;;;;;;;;;;;;;;;;5082579;27;32982;-74
2021/05/17 23:31:03;;;;;;;;;;;;;;;;;;5080800;28;31791;-75
2021/05/17 23:33:28;;;;;;;;;;;;;;;;;;5081168;28;32417;-75
2021/05/17 23:35:54;;;;;;;;;;;;;;;;;;5080688;27;32962;-74
2021/05/17 23:38:19;;;;;;;;;;;;;;;;;;5081115;27;32425;-74
2021/05/17 23:40:44;;;;;;;;;;;;;;;;;;5081114;27;32358;-74
2021/05/17 23:43:10;;;;;;;;;;;;;;;;;;5079296;28;31356;-76
2021/05/17 23:45:35;;;;;;;;;;;;;;;;;;5079439;28;32932;-74
2021/05/17 23:48:01;;;;;;;;;;;;;;;;;;5080628;28;32281;-76
2021/05/17 23:50:26;;;;;;;;;;;;;;;;;;5080583;27;32752;-74
2021/05/17 23:52:52;;;;;;;;;;;;;;;;;;5079263;27;32147;-74
2021/05/17 23:55:17;;;;;;;;;;;;;;;;;;5080549;28;32892;-74
2021/05/17 23:57:43;;;;;;;;;;;;;;;;;;5080520;28;32420;-75
